Terminal Aerodrome Forecast
Issued by NWS Sioux Falls, SD

Home | Current Version | Previous Version | Graphics & Text | Print | Product List | Glossary On
Versions: 1 2 3 4 5 6 7 8 9 10 11 12 13 14 15 16 17 18 19 20 21 22 23
000
FTUS43 KFSD 170550
TAFFSD
TAF
KFSD 170550Z 1706/1806 31018G25KT P6SM OVC025
     FM171300 32019G27KT P6SM OVC018
     FM171700 33020G29KT P6SM BKN025
     FM172300 34014KT P6SM BKN030=

USA.gov is the U.S. government's official web portal to all federal, state and local government web resources and services.